Time;durP1;ratioP1;P1;durP2;ratioP2;P2;SDS_P1;SDS_P2;PMS_P1;PMS_P2;Temp;Humidity;BMP_temperature;BMP_pressure;BME280_temperature;BME280_humidity;BME280_pressure;Samples;Min_cycle;Max_cycle;Signal;HPM_P1;HPM_P2
2023/03/07 00:00:11;;;;;;;10.37;8.17;;;4.50;98.80;;;;;;5009410;28;20211;-64
2023/03/07 00:02:37;;;;;;;11.35;8.05;;;4.90;98.80;;;;;;5007220;28;20228;-63
2023/03/07 00:05:04;;;;;;;10.05;8.05;;;4.90;98.90;;;;;;5008200;28;20231;-63
2023/03/07 00:07:30;;;;;;;11.07;8.18;;;4.80;98.50;;;;;;5008160;28;20211;-64
2023/03/07 00:09:57;;;;;;;11.63;8.07;;;5.30;99.10;;;;;;5007230;28;20219;-63
2023/03/07 00:12:23;;;;;;;11.13;8.88;;;4.70;98.80;;;;;;5008779;28;20204;-64
2023/03/07 00:14:49;;;;;;;10.60;8.15;;;4.80;98.80;;;;;;5009106;28;20194;-64
2023/03/07 00:17:14;;;;;;;11.90;7.17;;;5.00;98.80;;;;;;5004381;28;20725;-63
2023/03/07 00:19:43;;;;;;;11.60;9.20;;;4.70;98.20;;;;;;5007878;28;20263;-63
2023/03/07 00:22:10;;;;;;;11.05;8.20;;;4.30;98.00;;;;;;5008972;28;20445;-63
2023/03/07 00:24:36;;;;;;;10.93;8.65;;;4.70;98.60;;;;;;5005866;28;20190;-64
2023/03/07 00:27:01;;;;;;;9.87;7.63;;;5.00;98.70;;;;;;5007649;28;20566;-64
2023/03/07 00:29:27;;;;;;;11.90;8.37;;;5.00;98.80;;;;;;5007521;28;20482;-63
2023/03/07 00:31:53;;;;;;;10.80;8.20;;;4.90;98.60;;;;;;5006484;28;20669;-64
2023/03/07 00:34:19;;;;;;;12.73;8.40;;;4.80;98.40;;;;;;5006533;28;20284;-64
2023/03/07 00:36:44;;;;;;;11.43;8.03;;;4.80;98.60;;;;;;5009312;28;20227;-64
2023/03/07 00:39:10;;;;;;;11.00;8.27;;;5.00;98.40;;;;;;5005644;28;20329;-64
2023/03/07 00:41:36;;;;;;;14.50;8.20;;;5.00;98.60;;;;;;5008018;28;20193;-64
2023/03/07 00:44:01;;;;;;;12.87;8.07;;;4.80;98.50;;;;;;5008661;28;20599;-64
2023/03/07 00:46:27;;;;;;;13.03;8.50;;;5.10;98.50;;;;;;5006499;28;20678;-64
2023/03/07 00:48:53;;;;;;;11.07;7.93;;;5.00;98.20;;;;;;5010743;28;20225;-64
2023/03/07 00:51:21;;;;;;;10.13;8.23;;;4.20;98.10;;;;;;5012934;28;20209;-63
2023/03/07 00:53:46;;;;;;;8.82;7.00;;;5.00;97.90;;;;;;5011076;28;20857;-64
2023/03/07 00:56:15;;;;;;;11.63;8.03;;;5.00;98.20;;;;;;5011345;28;20183;-64
2023/03/07 00:58:41;;;;;;;8.55;6.90;;;4.90;98.10;;;;;;5008669;28;20213;-63
2023/03/07 01:01:08;;;;;;;15.17;8.03;;;4.40;97.80;;;;;;5009861;28;20187;-63
2023/03/07 01:03:34;;;;;;;8.85;7.20;;;5.00;97.90;;;;;;5012636;28;20447;-63
2023/03/07 01:06:20;;;;;;;9.75;7.18;;;4.80;97.50;;;;;;5012313;28;20187;-64
2023/03/07 01:08:46;;;;;;;10.25;7.55;;;4.80;97.70;;;;;;5009302;28;20742;-64
2023/03/07 01:11:12;;;;;;;10.80;8.63;;;4.90;97.40;;;;;;5010500;28;20274;-64
2023/03/07 01:13:39;;;;;;;9.85;6.47;;;4.90;97.30;;;;;;5011503;28;20450;-64
2023/03/07 01:16:22;;;;;;;9.90;7.38;;;4.90;97.40;;;;;;5011929;28;20642;-64
2023/03/07 01:18:53;;;;;;;9.90;8.20;;;4.80;97.30;;;;;;5010972;28;20703;-64
2023/03/07 01:21:25;;;;;;;10.50;7.82;;;5.70;97.90;;;;;;5010973;28;20324;-64
2023/03/07 01:23:51;;;;;;;11.65;7.78;;;4.80;97.50;;;;;;5008994;28;20208;-64
2023/03/07 01:26:20;;;;;;;10.13;6.93;;;5.30;97.70;;;;;;5011688;28;20196;-64
2023/03/07 01:28:46;;;;;;;9.25;6.03;;;4.90;97.60;;;;;;5010293;28;20205;-65
2023/03/07 01:31:12;;;;;;;10.40;7.60;;;4.60;97.40;;;;;;5011154;28;20201;-65
2023/03/07 01:33:38;;;;;;;9.97;7.20;;;4.80;97.30;;;;;;5009716;28;20891;-65
2023/03/07 01:36:04;;;;;;;13.10;7.67;;;5.10;97.70;;;;;;5008633;28;20463;-65
2023/03/07 01:38:32;;;;;;;8.60;6.70;;;5.10;97.30;;;;;;5010265;28;20475;-64
2023/03/07 01:41:01;;;;;;;10.65;7.00;;;4.90;96.90;;;;;;5011190;28;20189;-65
2023/03/07 01:43:29;;;;;;;12.15;7.30;;;4.90;97.00;;;;;;5010674;28;20566;-65
2023/03/07 01:46:14;;;;;;;9.30;6.68;;;5.00;97.10;;;;;;5008805;28;20200;-65
2023/03/07 01:48:39;;;;;;;9.05;6.65;;;4.90;97.10;;;;;;5006366;28;21929;-65
2023/03/07 01:51:05;;;;;;;9.57;7.13;;;5.20;96.80;;;;;;5009296;28;20265;-65
2023/03/07 01:53:31;;;;;;;9.67;7.23;;;4.80;96.40;;;;;;5010097;28;20201;-65
2023/03/07 01:55:56;;;;;;;9.27;7.03;;;5.30;96.50;;;;;;5010466;28;20201;-65
2023/03/07 01:58:22;;;;;;;7.00;5.73;;;5.30;96.00;;;;;;5010396;28;20186;-65
2023/03/07 02:00:48;;;;;;;8.10;6.67;;;4.90;96.20;;;;;;5010159;28;20242;-65
2023/03/07 02:03:47;;;;;;;9.67;6.90;;;5.10;96.30;;;;;;5008433;28;20463;-66
2023/03/07 02:06:13;;;;;;;9.43;7.68;;;5.10;96.20;;;;;;5010563;28;20966;-65
2023/03/07 02:08:40;;;;;;;12.95;6.72;;;5.00;96.10;;;;;;5008337;28;20235;-65
2023/03/07 02:11:06;;;;;;;9.40;6.68;;;4.80;96.20;;;;;;5010217;28;20655;-64
2023/03/07 02:13:32;;;;;;;7.85;6.53;;;4.60;96.30;;;;;;5010378;28;20201;-65
2023/03/07 02:16:00;;;;;;;9.30;6.57;;;4.80;96.20;;;;;;5008786;28;20852;-65
2023/03/07 02:18:30;;;;;;;12.65;7.30;;;5.10;96.50;;;;;;5007977;28;20652;-65
2023/03/07 02:21:08;;;;;;;8.45;6.82;;;5.50;96.50;;;;;;5010379;28;20305;-65
2023/03/07 02:23:55;;;;;;;9.15;7.65;;;5.20;96.40;;;;;;5007240;28;20193;-65
2023/03/07 02:26:29;;;;;;;8.80;6.43;;;5.00;96.50;;;;;;5006618;28;20221;-66
2023/03/07 02:28:56;;;;;;;8.32;6.65;;;4.90;96.70;;;;;;5025259;28;20211;-65
2023/03/07 02:31:22;;;;;;;9.55;7.45;;;5.10;96.60;;;;;;5010281;28;20190;-64
2023/03/07 02:33:48;;;;;;;9.15;6.85;;;4.40;95.90;;;;;;5007619;28;20186;-65
2023/03/07 02:36:18;;;;;;;8.50;6.47;;;4.90;96.20;;;;;;5009556;28;20181;-64
2023/03/07 02:38:47;;;;;;;10.48;7.15;;;4.40;96.10;;;;;;5007908;28;20205;-65
2023/03/07 02:41:16;;;;;;;8.40;7.00;;;5.00;96.40;;;;;;5008770;28;21015;-65
2023/03/07 02:43:42;;;;;;;11.30;7.85;;;5.10;96.10;;;;;;5009698;28;20247;-65
2023/03/07 02:46:07;;;;;;;10.30;7.50;;;4.20;96.20;;;;;;5009564;28;20190;-65
2023/03/07 02:48:33;;;;;;;9.07;6.63;;;5.40;96.50;;;;;;5005902;28;20291;-63
2023/03/07 02:50:58;;;;;;;10.20;7.93;;;4.90;96.40;;;;;;5009622;28;20221;-64
2023/03/07 02:53:24;;;;;;;8.40;6.57;;;4.80;96.20;;;;;;5010296;28;20190;-64
2023/03/07 02:55:50;;;;;;;8.83;7.13;;;5.40;96.10;;;;;;5006775;28;20651;-65
2023/03/07 02:58:15;;;;;;;8.50;7.33;;;5.10;95.90;;;;;;5011717;28;20182;-65
2023/03/07 03:00:41;;;;;;;8.23;7.37;;;4.50;96.00;;;;;;5009432;28;20336;-64
2023/03/07 03:03:07;;;;;;;9.80;7.93;;;5.10;96.20;;;;;;5009962;28;20550;-65
2023/03/07 03:05:32;;;;;;;9.37;7.30;;;5.50;96.40;;;;;;5008034;28;20325;-65
2023/03/07 03:07:58;;;;;;;10.93;7.30;;;5.00;96.00;;;;;;5009595;28;20202;-64
2023/03/07 03:10:24;;;;;;;9.67;6.93;;;4.90;96.10;;;;;;5006381;28;20224;-65
2023/03/07 03:12:49;;;;;;;9.60;7.47;;;5.00;96.30;;;;;;5010050;28;20651;-66
2023/03/07 03:15:15;;;;;;;11.00;7.67;;;5.10;96.30;;;;;;5006327;28;20491;-65
2023/03/07 03:17:40;;;;;;;10.40;7.00;;;4.90;96.20;;;;;;5005792;28;20183;-65
2023/03/07 03:20:11;;;;;;;10.73;7.23;;;4.60;96.10;;;;;;5009650;28;20255;-65
2023/03/07 03:22:38;;;;;;;10.60;7.20;;;4.90;96.20;;;;;;5008218;28;20201;-64
2023/03/07 03:25:08;;;;;;;12.80;7.93;;;4.80;96.30;;;;;;5008926;28;20186;-65
2023/03/07 03:27:34;;;;;;;9.43;6.75;;;4.60;96.40;;;;;;5008395;28;20198;-65
2023/03/07 03:30:00;;;;;;;10.30;7.60;;;5.00;96.90;;;;;;5008482;28;20214;-66
2023/03/07 03:32:25;;;;;;;11.23;8.00;;;4.90;96.80;;;;;;5006393;28;20557;-64
2023/03/07 03:34:51;;;;;;;10.33;7.17;;;4.60;96.20;;;;;;5009368;28;20659;-64
2023/03/07 03:37:16;;;;;;;10.43;8.07;;;4.90;96.80;;;;;;5009215;28;20189;-65
2023/03/07 03:39:42;;;;;;;10.03;7.03;;;4.70;96.50;;;;;;5038104;28;20207;-66
2023/03/07 03:42:08;;;;;;;9.77;7.47;;;4.70;96.40;;;;;;5009500;28;20195;-66
2023/03/07 03:44:33;;;;;;;13.83;8.00;;;4.80;96.70;;;;;;5008931;28;20204;-64
2023/03/07 03:46:59;;;;;;;10.30;7.60;;;4.90;96.70;;;;;;5008772;28;20218;-67
2023/03/07 03:49:25;;;;;;;11.40;7.87;;;4.80;96.50;;;;;;5007089;28;20702;-64
2023/03/07 03:51:51;;;;;;;10.90;8.10;;;4.60;96.50;;;;;;5008964;28;20992;-64
2023/03/07 03:54:16;;;;;;;9.43;7.07;;;4.30;96.10;;;;;;5007448;28;20350;-65
2023/03/07 03:56:42;;;;;;;10.33;7.80;;;4.70;96.60;;;;;;5008776;28;20725;-64
2023/03/07 03:59:07;;;;;;;11.67;8.13;;;5.30;96.90;;;;;;5008576;28;20973;-64
2023/03/07 04:01:33;;;;;;;13.23;8.20;;;4.70;96.50;;;;;;5006664;28;20236;-64
2023/03/07 04:03:59;;;;;;;13.50;8.90;;;4.80;96.80;;;;;;5006942;28;20277;-64
2023/03/07 04:06:31;;;;;;;11.27;7.67;;;4.90;96.60;;;;;;5007478;28;20197;-66
2023/03/07 04:08:58;;;;;;;9.82;8.05;;;4.30;96.50;;;;;;5005186;28;20322;-64
2023/03/07 04:11:24;;;;;;;11.57;8.63;;;4.80;96.70;;;;;;5009044;28;20703;-64
2023/03/07 04:13:51;;;;;;;10.40;8.27;;;4.20;96.50;;;;;;5009894;28;20210;-64
2023/03/07 04:16:17;;;;;;;11.55;8.68;;;4.90;97.00;;;;;;5009375;28;20200;-64
2023/03/07 04:18:42;;;;;;;12.53;9.27;;;4.90;97.10;;;;;;5008648;28;20206;-66
2023/03/07 04:21:11;;;;;;;11.23;8.10;;;4.70;97.10;;;;;;5009817;28;20455;-65
2023/03/07 04:23:37;;;;;;;12.55;8.38;;;5.10;97.30;;;;;;5010413;28;20185;-65
2023/03/07 04:26:05;;;;;;;11.37;7.67;;;4.90;97.20;;;;;;5012656;28;20276;-66
2023/03/07 04:28:47;;;;;;;13.30;7.88;;;4.60;96.70;;;;;;5011295;28;20472;-66
2023/03/07 04:31:18;;;;;;;12.20;8.00;;;4.70;97.10;;;;;;5012150;28;20186;-65
2023/03/07 04:33:45;;;;;;;15.48;9.52;;;4.50;97.00;;;;;;5010835;28;20191;-66
2023/03/07 04:36:12;;;;;;;11.43;8.48;;;4.60;97.00;;;;;;5011747;28;20566;-66
2023/03/07 04:38:39;;;;;;;14.73;8.57;;;4.60;97.00;;;;;;5010322;28;20291;-65
2023/03/07 04:41:05;;;;;;;14.15;8.30;;;4.80;96.80;;;;;;5026920;28;20739;-65
2023/03/07 04:43:31;;;;;;;12.07;7.80;;;4.10;96.70;;;;;;5007508;28;20193;-64
2023/03/07 04:45:56;;;;;;;11.43;8.07;;;4.90;96.90;;;;;;5010971;28;20285;-67
2023/03/07 04:48:22;;;;;;;11.33;8.40;;;4.80;96.20;;;;;;5010731;28;20204;-66
2023/03/07 04:50:49;;;;;;;14.77;9.00;;;4.60;96.50;;;;;;5009828;28;20316;-65
2023/03/07 04:53:16;;;;;;;10.93;8.05;;;4.50;96.50;;;;;;5014261;28;20190;-67
2023/03/07 04:55:42;;;;;;;11.00;7.80;;;5.10;96.60;;;;;;5004426;28;20191;-66
2023/03/07 04:58:11;;;;;;;11.00;7.97;;;5.00;96.00;;;;;;5010489;28;20344;-66
2023/03/07 05:00:38;;;;;;;12.55;8.20;;;4.30;96.20;;;;;;5009569;28;20482;-65
2023/03/07 05:03:04;;;;;;;10.48;7.82;;;5.10;96.60;;;;;;5012283;28;20201;-65
2023/03/07 05:05:29;;;;;;;11.60;8.40;;;5.00;96.60;;;;;;5011823;28;20263;-63
2023/03/07 05:07:55;;;;;;;14.43;8.67;;;5.00;96.40;;;;;;5009020;28;20863;-63
2023/03/07 05:10:21;;;;;;;12.17;8.50;;;5.00;96.60;;;;;;5006155;28;20219;-63
2023/03/07 05:12:46;;;;;;;10.87;7.70;;;5.00;96.80;;;;;;5010522;28;20184;-63
2023/03/07 05:15:12;;;;;;;10.77;8.43;;;4.80;96.50;;;;;;5010724;28;20204;-64
2023/03/07 05:17:38;;;;;;;13.52;7.40;;;4.90;96.70;;;;;;5009219;28;20185;-64
2023/03/07 05:20:04;;;;;;;11.17;8.80;;;4.70;96.50;;;;;;5010006;28;20207;-65
2023/03/07 05:22:30;;;;;;;12.55;8.85;;;4.70;96.70;;;;;;5009029;28;20194;-65
2023/03/07 05:24:57;;;;;;;10.77;7.67;;;4.90;96.50;;;;;;5007136;28;20194;-65
2023/03/07 05:27:22;;;;;;;12.25;8.15;;;4.90;96.70;;;;;;5009288;28;20209;-65
2023/03/07 05:29:48;;;;;;;9.40;7.57;;;4.70;96.70;;;;;;5008537;28;20209;-66
2023/03/07 05:32:14;;;;;;;8.80;7.40;;;4.80;96.40;;;;;;5011040;28;20673;-66
2023/03/07 05:34:40;;;;;;;8.70;7.00;;;4.70;96.70;;;;;;5007857;28;20194;-66
2023/03/07 05:37:05;;;;;;;11.53;8.23;;;4.80;96.70;;;;;;5009638;28;20992;-66
2023/03/07 05:39:31;;;;;;;13.73;8.50;;;4.90;96.60;;;;;;5006062;28;20209;-66
2023/03/07 05:41:57;;;;;;;10.13;7.53;;;4.60;96.50;;;;;;5010788;28;20233;-65
2023/03/07 05:44:22;;;;;;;11.90;8.00;;;4.90;96.30;;;;;;5008238;28;20676;-65
2023/03/07 05:46:48;;;;;;;9.13;6.70;;;4.80;96.50;;;;;;5010071;28;20177;-68
2023/03/07 05:49:13;;;;;;;8.67;7.03;;;4.40;96.20;;;;;;5007457;28;20221;-68
2023/03/07 05:51:39;;;;;;;10.70;7.70;;;4.90;96.30;;;;;;5009494;28;20190;-67
2023/03/07 05:54:04;;;;;;;9.70;7.70;;;5.00;96.30;;;;;;5010547;28;20576;-68
2023/03/07 05:56:31;;;;;;;9.93;8.20;;;4.20;95.50;;;;;;5009921;28;20209;-68
2023/03/07 05:58:56;;;;;;;11.18;7.57;;;4.70;96.00;;;;;;5007380;28;20206;-68
2023/03/07 06:01:22;;;;;;;9.00;7.30;;;4.90;95.80;;;;;;5008848;28;20197;-70
2023/03/07 06:03:47;;;;;;;11.60;7.60;;;4.70;95.80;;;;;;5010004;28;20677;-72
2023/03/07 06:06:13;;;;;;;10.93;6.87;;;4.90;95.60;;;;;;5009234;28;20178;-66
2023/03/07 06:08:39;;;;;;;13.20;7.63;;;4.90;95.40;;;;;;5009131;28;20209;-67
2023/03/07 06:11:05;;;;;;;8.43;7.10;;;4.20;94.90;;;;;;5010464;28;20555;-73
2023/03/07 06:13:30;;;;;;;11.03;7.83;;;4.90;95.40;;;;;;5007641;28;20564;-74
2023/03/07 06:15:56;;;;;;;10.23;7.27;;;4.70;95.20;;;;;;5023003;28;20544;-74
2023/03/07 06:18:23;;;;;;;8.77;7.00;;;4.90;94.90;;;;;;5008912;28;20448;-76
2023/03/07 06:21:00;;;;;;;11.10;7.15;;;4.80;95.30;;;;;;5008857;28;20786;-75
2023/03/07 06:23:28;;;;;;;8.20;7.20;;;4.80;95.20;;;;;;5008304;28;20190;-69
2023/03/07 06:25:53;;;;;;;9.95;7.78;;;5.00;95.20;;;;;;5007664;28;20205;-70
2023/03/07 06:28:19;;;;;;;7.80;6.23;;;5.00;94.60;;;;;;5009126;28;20182;-69
2023/03/07 06:30:45;;;;;;;8.43;6.23;;;4.90;95.00;;;;;;5006345;28;20472;-68
2023/03/07 06:33:11;;;;;;;12.48;7.38;;;4.80;95.00;;;;;;5012449;28;20189;-69
2023/03/07 06:35:41;;;;;;;10.23;7.10;;;4.90;95.00;;;;;;5009975;28;20657;-68
2023/03/07 06:38:07;;;;;;;12.18;6.70;;;5.00;94.40;;;;;;5007944;28;20452;-68
2023/03/07 06:40:33;;;;;;;7.70;5.95;;;4.90;94.90;;;;;;5008272;28;20209;-68
2023/03/07 06:42:58;;;;;;;10.50;7.90;;;5.40;95.20;;;;;;5009322;28;20190;-69
2023/03/07 06:45:24;;;;;;;8.77;6.60;;;5.00;94.90;;;;;;5008213;28;20449;-69
2023/03/07 06:47:50;;;;;;;12.00;8.17;;;5.20;95.00;;;;;;5004577;28;20206;-69
2023/03/07 06:50:16;;;;;;;15.27;8.00;;;5.30;95.10;;;;;;5007337;28;20216;-69
2023/03/07 06:52:42;;;;;;;8.43;6.82;;;5.10;95.00;;;;;;5007829;28;20186;-67
2023/03/07 06:55:08;;;;;;;9.30;6.93;;;5.40;94.70;;;;;;5003158;28;20270;-65
2023/03/07 06:57:34;;;;;;;8.50;6.72;;;5.20;94.10;;;;;;5004987;28;20967;-67
2023/03/07 07:00:02;;;;;;;13.93;6.70;;;5.20;94.30;;;;;;4991982;28;20222;-71
2023/03/07 07:02:28;;;;;;;8.57;6.72;;;5.30;94.30;;;;;;5010832;28;20699;-71
2023/03/07 07:04:53;;;;;;;9.93;7.63;;;4.90;94.00;;;;;;5012645;28;20187;-71
2023/03/07 07:07:19;;;;;;;9.53;6.80;;;5.40;94.20;;;;;;5006832;28;20568;-72
2023/03/07 07:09:45;;;;;;;7.63;6.50;;;5.60;94.20;;;;;;5021752;28;20220;-70
2023/03/07 07:12:11;;;;;;;8.87;6.67;;;5.50;94.00;;;;;;5012090;28;20197;-73
2023/03/07 07:14:36;;;;;;;10.50;7.50;;;6.10;94.20;;;;;;5022517;28;20276;-68
2023/03/07 07:17:02;;;;;;;9.00;6.40;;;5.80;93.90;;;;;;5009303;28;21064;-71
2023/03/07 07:19:27;;;;;;;9.50;7.30;;;5.80;93.70;;;;;;5013122;28;20213;-72
2023/03/07 07:21:53;;;;;;;10.90;8.13;;;5.40;93.50;;;;;;5010226;28;20236;-72
2023/03/07 07:24:19;;;;;;;9.70;7.53;;;5.90;93.50;;;;;;5004889;28;20195;-69
2023/03/07 07:26:45;;;;;;;9.93;7.23;;;6.00;93.30;;;;;;5024152;28;20205;-68
2023/03/07 07:29:10;;;;;;;8.63;6.83;;;6.00;93.40;;;;;;5008751;28;20242;-70
2023/03/07 07:31:36;;;;;;;8.80;7.30;;;6.40;93.20;;;;;;5008387;28;20693;-69
2023/03/07 07:34:03;;;;;;;10.35;6.95;;;6.40;92.90;;;;;;5007357;28;20213;-66
2023/03/07 07:36:29;;;;;;;7.50;6.78;;;6.60;92.60;;;;;;5021780;28;20187;-66
2023/03/07 07:38:54;;;;;;;7.65;6.10;;;7.00;92.40;;;;;;5003425;28;20217;-67
2023/03/07 07:41:20;;;;;;;9.53;6.83;;;6.10;91.70;;;;;;5005591;28;20709;-67
2023/03/07 07:43:47;;;;;;;8.27;6.90;;;6.70;91.80;;;;;;5004853;28;20183;-66
2023/03/07 07:46:12;;;;;;;8.80;6.70;;;6.60;91.70;;;;;;5004453;28;20179;-67
2023/03/07 07:48:38;;;;;;;8.33;6.77;;;6.80;91.70;;;;;;5007173;28;20714;-67
2023/03/07 07:51:04;;;;;;;8.87;7.10;;;6.70;91.50;;;;;;5007876;28;20810;-67
2023/03/07 07:53:30;;;;;;;10.07;7.13;;;6.60;91.70;;;;;;4999644;28;20269;-66
2023/03/07 07:55:57;;;;;;;10.35;7.07;;;6.70;91.70;;;;;;5006940;28;20182;-70
2023/03/07 07:58:23;;;;;;;8.40;6.50;;;6.80;91.00;;;;;;5003089;28;20558;-70
2023/03/07 08:00:48;;;;;;;10.38;7.30;;;6.90;91.50;;;;;;5005854;28;20209;-70
2023/03/07 08:03:14;;;;;;;10.47;7.50;;;7.40;91.60;;;;;;5007886;28;20195;-69
2023/03/07 08:05:44;;;;;;;9.63;6.67;;;7.00;91.30;;;;;;5009741;28;20190;-73
2023/03/07 08:08:09;;;;;;;7.70;6.90;;;7.10;91.10;;;;;;5007337;28;20345;-69
2023/03/07 08:10:35;;;;;;;8.90;7.17;;;7.50;91.10;;;;;;5005132;28;20218;-70
2023/03/07 08:13:02;;;;;;;8.90;7.47;;;7.70;90.80;;;;;;5009254;28;20182;-70
2023/03/07 08:15:27;;;;;;;9.73;6.93;;;7.70;90.10;;;;;;5009103;28;20527;-70
2023/03/07 08:17:53;;;;;;;8.77;6.43;;;8.30;90.30;;;;;;5008569;28;20287;-70
2023/03/07 08:20:21;;;;;;;11.27;8.30;;;8.50;89.70;;;;;;5006141;28;20306;-69
2023/03/07 08:22:48;;;;;;;8.70;7.00;;;8.50;88.30;;;;;;5003968;28;20599;-66
2023/03/07 08:25:20;;;;;;;9.02;7.05;;;8.80;87.90;;;;;;5006448;28;20187;-66
2023/03/07 08:27:46;;;;;;;12.45;9.38;;;8.50;87.80;;;;;;5006558;28;20184;-66
2023/03/07 08:30:12;;;;;;;8.77;7.10;;;8.50;87.50;;;;;;5006724;28;20214;-65
2023/03/07 08:32:37;;;;;;;8.38;6.70;;;8.70;86.20;;;;;;5003250;28;20200;-64
2023/03/07 08:35:03;;;;;;;7.50;6.10;;;8.60;86.30;;;;;;5003180;28;20186;-65
2023/03/07 08:37:29;;;;;;;10.43;6.63;;;8.70;86.60;;;;;;5003954;28;20205;-66
2023/03/07 08:39:55;;;;;;;11.27;6.80;;;8.60;86.50;;;;;;5003209;28;20202;-68
2023/03/07 08:42:20;;;;;;;7.77;6.97;;;8.90;86.20;;;;;;5008325;28;20226;-67
2023/03/07 08:44:46;;;;;;;8.77;7.43;;;9.10;85.50;;;;;;5006445;28;20188;-67
2023/03/07 08:47:12;;;;;;;7.77;6.93;;;9.30;84.30;;;;;;5004177;28;20192;-68
2023/03/07 08:49:38;;;;;;;9.57;5.90;;;9.60;83.20;;;;;;5003529;28;20224;-70
2023/03/07 08:52:04;;;;;;;8.07;6.20;;;9.80;82.30;;;;;;5004519;28;20184;-66
2023/03/07 08:54:31;;;;;;;9.10;6.90;;;10.10;79.60;;;;;;5006809;28;20674;-69
2023/03/07 08:56:57;;;;;;;8.60;7.20;;;9.90;79.30;;;;;;5006881;28;20697;-68
2023/03/07 08:59:23;;;;;;;9.93;6.05;;;9.80;79.40;;;;;;5004453;28;20216;-69
2023/03/07 09:01:49;;;;;;;10.17;7.60;;;9.80;80.10;;;;;;5005067;28;20303;-70
2023/03/07 09:04:14;;;;;;;8.50;6.07;;;9.30;80.40;;;;;;5005336;28;20272;-70
2023/03/07 09:06:40;;;;;;;7.40;6.60;;;9.70;80.80;;;;;;5007208;28;20196;-70
2023/03/07 09:09:05;;;;;;;6.93;5.83;;;9.80;81.00;;;;;;5004494;28;20938;-71
2023/03/07 09:11:31;;;;;;;7.97;6.53;;;9.70;80.90;;;;;;5011532;28;20200;-73
2023/03/07 09:13:57;;;;;;;7.60;6.50;;;10.10;79.90;;;;;;5027409;28;20183;-73
2023/03/07 09:16:22;;;;;;;9.27;5.60;;;8.80;79.50;;;;;;5006674;28;20271;-72
2023/03/07 09:18:49;;;;;;;7.40;5.57;;;9.40;79.40;;;;;;5010332;28;20211;-70
2023/03/07 09:21:14;;;;;;;6.95;5.78;;;9.40;78.10;;;;;;5010394;28;20196;-72
2023/03/07 09:23:42;;;;;;;8.00;6.67;;;8.90;77.40;;;;;;5008339;28;20194;-72
2023/03/07 09:26:09;;;;;;;6.18;5.57;;;9.30;77.20;;;;;;5011210;28;20856;-71
2023/03/07 09:28:34;;;;;;;6.85;5.40;;;9.60;76.90;;;;;;5010847;28;20577;-71
2023/03/07 09:31:06;;;;;;;6.00;5.07;;;9.50;76.80;;;;;;5011341;28;20200;-76
2023/03/07 09:33:32;;;;;;;6.07;5.30;;;9.30;76.90;;;;;;5011095;28;20210;-69
2023/03/07 09:35:58;;;;;;;5.90;5.20;;;9.20;76.20;;;;;;5012566;28;20279;-73
2023/03/07 09:38:23;;;;;;;5.20;4.70;;;8.60;76.20;;;;;;5009032;28;20413;-70
2023/03/07 09:40:49;;;;;;;9.43;5.07;;;9.10;76.40;;;;;;5005207;28;20529;-70
2023/03/07 09:43:25;;;;;;;6.50;5.23;;;8.70;76.80;;;;;;5008555;28;20196;-70
2023/03/07 09:46:34;;;;;;;6.15;5.45;;;8.60;77.70;;;;;;5010458;28;20452;-71
2023/03/07 09:49:11;;;;;;;5.88;5.05;;;8.70;78.20;;;;;;5008782;28;20223;-70
2023/03/07 09:51:42;;;;;;;6.50;5.68;;;8.70;78.90;;;;;;5008550;28;20636;-70
2023/03/07 09:54:19;;;;;;;7.53;5.88;;;8.30;78.60;;;;;;5008856;28;20270;-69
2023/03/07 09:56:59;;;;;;;7.65;5.78;;;8.00;78.60;;;;;;5005846;28;20933;-71
2023/03/07 09:59:47;;;;;;;7.70;5.63;;;8.30;79.80;;;;;;5008487;28;20221;-72
2023/03/07 10:02:38;;;;;;;7.05;5.47;;;7.90;79.10;;;;;;5006767;28;20556;-71
2023/03/07 10:05:03;;;;;;;5.25;4.75;;;7.90;80.00;;;;;;5026723;28;20558;-70
2023/03/07 10:07:30;;;;;;;7.47;5.60;;;7.70;79.80;;;;;;5008170;28;20187;-72
2023/03/07 10:10:26;;;;;;;5.65;5.05;;;7.60;80.30;;;;;;5005995;28;20641;-69
2023/03/07 10:13:21;;;;;;;6.00;5.38;;;7.60;79.10;;;;;;5041278;28;20554;-71
2023/03/07 10:16:03;;;;;;;6.03;5.03;;;7.70;79.70;;;;;;5010806;28;20182;-69
2023/03/07 10:19:02;;;;;;;6.13;5.50;;;7.70;80.20;;;;;;5004625;28;20202;-72
2023/03/07 10:21:43;;;;;;;6.97;5.22;;;7.60;79.60;;;;;;5009074;28;20187;-70
2023/03/07 10:24:25;;;;;;;5.30;4.80;;;7.60;79.90;;;;;;5008919;28;20227;-66
2023/03/07 10:27:05;;;;;;;7.22;5.28;;;7.50;79.60;;;;;;5007832;28;20228;-66
2023/03/07 10:29:43;;;;;;;8.38;4.93;;;7.50;79.90;;;;;;5008718;28;20210;-65
2023/03/07 10:32:20;;;;;;;7.22;5.40;;;7.50;79.40;;;;;;5009012;28;20190;-68
2023/03/07 10:34:59;;;;;;;6.28;5.38;;;6.90;78.90;;;;;;5000857;28;20557;-69
2023/03/07 10:37:42;;;;;;;6.55;5.38;;;7.60;79.40;;;;;;5007369;28;20195;-67
2023/03/07 10:40:33;;;;;;;6.65;5.35;;;7.60;80.80;;;;;;5008297;28;20229;-68
2023/03/07 10:42:59;;;;;;;7.80;4.70;;;7.70;80.70;;;;;;5008465;28;20193;-69
2023/03/07 10:45:29;;;;;;;8.35;5.45;;;7.60;81.30;;;;;;5008554;28;20676;-68
2023/03/07 10:47:57;;;;;;;8.23;5.72;;;7.50;81.50;;;;;;5003382;28;20614;-69
2023/03/07 10:50:44;;;;;;;9.00;6.50;;;7.40;81.90;;;;;;5008584;28;20223;-67
2023/03/07 10:53:24;;;;;;;10.18;6.80;;;7.50;83.20;;;;;;5005274;28;20302;-67
2023/03/07 10:55:50;;;;;;;7.28;5.95;;;7.40;82.80;;;;;;5006353;28;20734;-67
2023/03/07 10:58:15;;;;;;;8.10;6.50;;;7.50;80.80;;;;;;5006724;28;20211;-68
2023/03/07 11:01:05;;;;;;;7.87;6.23;;;7.40;81.40;;;;;;5001844;28;20703;-64
2023/03/07 11:03:40;;;;;;;6.75;5.45;;;7.50;80.10;;;;;;5001673;28;20206;-65
2023/03/07 11:06:24;;;;;;;7.95;5.50;;;7.30;79.50;;;;;;5006816;28;20257;-66
2023/03/07 11:08:49;;;;;;;8.50;5.45;;;7.40;79.30;;;;;;5004955;28;20319;-65
2023/03/07 11:11:23;;;;;;;7.30;5.43;;;7.50;79.60;;;;;;5006789;28;20351;-66
2023/03/07 11:14:15;;;;;;;8.70;6.03;;;7.40;79.90;;;;;;5004290;28;20179;-65
2023/03/07 11:17:01;;;;;;;10.32;6.50;;;7.40;78.70;;;;;;5004212;28;20195;-64
2023/03/07 11:19:41;;;;;;;7.53;5.22;;;7.20;78.00;;;;;;5007010;28;20255;-65
2023/03/07 11:22:22;;;;;;;7.68;5.85;;;7.50;78.60;;;;;;5040537;28;20325;-64
2023/03/07 11:24:55;;;;;;;9.73;5.93;;;7.40;78.20;;;;;;5003836;28;20179;-64
2023/03/07 11:27:24;;;;;;;7.20;5.60;;;7.40;79.20;;;;;;5005772;28;20222;-64
2023/03/07 11:30:11;;;;;;;7.82;5.55;;;7.40;78.80;;;;;;5008113;28;20203;-65
2023/03/07 11:32:41;;;;;;;8.30;6.25;;;7.50;79.50;;;;;;5006008;28;20850;-65
2023/03/07 11:35:14;;;;;;;7.78;6.13;;;7.30;78.50;;;;;;5006407;28;20237;-66
2023/03/07 11:38:06;;;;;;;6.50;5.78;;;7.00;77.50;;;;;;5006076;28;20183;-65
2023/03/07 11:40:52;;;;;;;6.90;5.93;;;7.10;77.50;;;;;;5002436;28;20702;-65
2023/03/07 11:43:59;;;;;;;7.32;4.97;;;7.70;78.50;;;;;;5006113;28;20192;-65
2023/03/07 11:46:53;;;;;;;8.48;6.80;;;7.30;78.30;;;;;;4996661;28;20230;-65
2023/03/07 11:49:41;;;;;;;7.32;6.10;;;7.20;78.70;;;;;;5003867;28;20223;-65
2023/03/07 11:52:35;;;;;;;30.48;7.93;;;7.40;78.20;;;;;;5007307;28;20249;-66
2023/03/07 11:55:20;;;;;;;8.27;5.50;;;7.50;77.70;;;;;;5002536;28;20187;-65
2023/03/07 11:57:57;;;;;;;7.63;5.70;;;7.20;77.00;;;;;;5005282;28;20280;-65
2023/03/07 12:00:47;;;;;;;7.05;5.25;;;7.30;77.10;;;;;;5007794;28;20483;-66
2023/03/07 12:03:34;;;;;;;7.50;5.35;;;7.20;77.30;;;;;;5020718;28;20178;-66
2023/03/07 12:06:24;;;;;;;6.72;5.90;;;7.30;77.60;;;;;;5006037;28;20484;-65
2023/03/07 12:08:58;;;;;;;8.88;6.55;;;7.20;77.00;;;;;;5000538;28;20207;-66
2023/03/07 12:11:28;;;;;;;5.97;5.28;;;7.50;77.20;;;;;;5007306;28;20257;-65
2023/03/07 12:14:27;;;;;;;6.35;5.43;;;7.40;76.50;;;;;;5007611;28;20187;-65
2023/03/07 12:17:04;;;;;;;6.93;5.00;;;7.30;76.20;;;;;;5004248;28;20185;-65
2023/03/07 12:19:54;;;;;;;6.05;4.70;;;7.60;76.60;;;;;;5003696;28;20214;-65
2023/03/07 12:22:27;;;;;;;9.70;6.13;;;7.50;76.00;;;;;;5007536;28;20187;-65
2023/03/07 12:25:03;;;;;;;6.20;5.40;;;7.50;76.00;;;;;;5005838;28;20214;-65
2023/03/07 12:27:28;;;;;;;7.20;5.72;;;7.50;76.30;;;;;;5004813;28;20190;-65
2023/03/07 12:30:13;;;;;;;7.90;5.57;;;7.40;76.40;;;;;;5006887;28;20901;-66
2023/03/07 12:32:39;;;;;;;7.53;5.47;;;7.50;75.60;;;;;;5007134;28;20203;-66
2023/03/07 12:35:25;;;;;;;6.15;5.28;;;7.80;75.60;;;;;;5005725;28;20675;-66
2023/03/07 12:38:25;;;;;;;5.60;4.80;;;7.70;75.40;;;;;;5004913;28;20185;-66
2023/03/07 12:40:57;;;;;;;7.50;5.57;;;7.90;74.30;;;;;;4999450;28;20187;-66
2023/03/07 12:43:36;;;;;;;6.15;5.07;;;7.90;74.00;;;;;;5007901;28;20191;-66
2023/03/07 12:46:42;;;;;;;5.28;4.78;;;8.10;73.40;;;;;;5008750;28;20412;-66
2023/03/07 12:49:30;;;;;;;8.45;5.60;;;8.70;73.10;;;;;;4995946;28;20667;-66
2023/03/07 12:52:00;;;;;;;7.40;5.00;;;8.60;72.80;;;;;;5011061;28;20192;-66
2023/03/07 12:54:33;;;;;;;5.60;4.68;;;9.40;72.70;;;;;;5005386;28;20260;-67
2023/03/07 12:57:14;;;;;;;7.57;5.85;;;8.90;70.90;;;;;;5008526;28;20184;-67
2023/03/07 12:59:42;;;;;;;6.70;4.70;;;9.20;71.50;;;;;;5009645;28;20220;-66
2023/03/07 13:02:14;;;;;;;6.25;5.65;;;9.50;70.30;;;;;;5009167;28;20184;-67
2023/03/07 13:04:42;;;;;;;9.45;4.88;;;8.90;69.60;;;;;;5010013;28;20644;-66
2023/03/07 13:07:12;;;;;;;6.93;5.45;;;8.80;70.80;;;;;;5010676;28;20195;-66